TAF and METAR

No METAR available for Indira Gandhi International Airport

TAF for Indira Gandhi International Airport

TAF VIDP 022300Z 0300/0406 26005KT 2500 HZ -RA FEW035 SCT100 BECMG 0300/0303 FEW040CB BECMG 0304/0306 29008KT 3500 HZ BECMG 0310/0315 26010G20KT 3000 HZ -TSRA FEW040CB BKN090 BECMG 0320/0322 29006KT 2500 HZ BR FEW035 BECMG 0404/0406 32008KT 4000 HZ SCT100
Report created 3. jun 01:00

between 3. jun 02:00 - 4. jun 08:00

wind 5 knots from W (260°) visibility 2500 meters haze light rain some clouds (~25% cover) at 3500 feet scattered clouds (~50% cover) at 10000 feet

becoming between 3. jun 02:00 - 3. jun 05:00

some clouds (~25% cover) at 4000 feet of type cumulonimbus

becoming between 3. jun 06:00 - 3. jun 08:00

wind 8 knots from WNW (290°) visibility 3500 meters haze

becoming between 3. jun 12:00 - 3. jun 17:00

wind 10 knots from W (260°) with gusts up to 20 knots visibility 3000 meters haze light thunderstorm and rain some clouds (~25% cover) at 4000 feet of type cumulonimbus broken clouds (~75% cover) at 9000 feet

becoming between 3. jun 22:00 - 4. jun 00:00

wind 6 knots from WNW (290°) visibility 2500 meters haze mist some clouds (~25% cover) at 3500 feet

becoming between 4. jun 06:00 - 4. jun 08:00

wind 8 knots from NW (320°) visibility 4000 meters haze scattered clouds (~50% cover) at 10000 feet